Immagine casuale
Testata Regione Lazio ARSIAL SIARL

Ultima Misura Rilevata

Temperatura, Umidità, Pioggia, Pressione Radiazione Solare, Venti, Evapotraspirazione, ecc.
Temperature diurne e notturne Direzione vento Legenda
Prov Stazione Data TMin TMed TMax UMed Pioggia PMed
FR ALATRI Basciano 18/01/2018 2,2 7,2 14,6 52 0,4 1.014
FR ALVITO Az. Ist. S. Benedetto 18/01/2018 -4,3 4,2 11,9 73 0,4 1.022
FR ANAGNI La Gloria 18/01/2018 -2 6,1 13,3 69 0,4 1.021
FR ARPINO Vigne Piane 18/01/2018 1,2 5,9 10,8 56 1,6 1.013
FR BOVILLE ERNICA Sasso 18/01/2018 N.D. N.D. N.D. N.D. N.D. 1.020
FR ESPERIA Modale 18/01/2018 -2,7 5,7 13,8 77 1,2 1.015
FR PASTENA Acero 18/01/2018 -4,4 5,2 13,7 77 3 1.017
FR PIGLIO Civitella 18/01/2018 -2 6,5 13,5 64 0,6 1.024
FR PONTECORVO Melfi di Sotto 18/01/2018 -2,6 6 14,7 78 2,2 ----
FR S. ELIA FIUMERAPIDO Portella 18/01/2018 -0,1 6,6 13,4 65 1,4 1.020
FR S. GIORGIO A LIRI Porto 18/01/2018 -3,1 5,6 14,2 81 0,6 1.015
FR SGURGOLA Campo Lungo 18/01/2018 -2,4 6,6 13,6 68 0,2 ----
FR VALLECORSA Serbatoio comunale 18/01/2018 2,8 7 11,8 58 2,4 1.021
LT APRILIA Le Ferriere 18/01/2018 1,4 9,2 14,4 61 1 1.019
LT CISTERNA B.go Carso 18/01/2018 -1,2 7,7 14,2 72 1,5 ----
LT CISTERNA Doganella di Ninfa 18/01/2018 -0,1 8,9 15,8 62 2 1.020
LT CORI Portone 18/01/2018 1,7 9,2 14,7 58 0,8 1.019
LT FONDI Capratica 18/01/2018 -1,1 8,2 15,3 72 1,4 1.019
LT FORMIA Loc. Gianola 18/01/2018 -0,7 8,2 13,5 68 2 ----
LT ITRI Valle Quercia 18/01/2018 4,3 8,9 13,2 55 2 1.019
LT MAENZA Casacotta 18/01/2018 1,7 9 14,3 61 5,2 1.016
LT MINTURNO Pulcherini 18/01/2018 3,5 9,1 13,5 57 2 1.021
LT PONTINIA Cotarda 18/01/2018 -2 7,7 16,1 72 1,6 1.017
LT SABAUDIA Acquaviva 18/01/2018 -2,6 7,6 14 65 0,4 1.019
LT SONNINO Frasso 18/01/2018 3,4 9,8 15,9 57 4,8 1.020
RI ACCUMOLI Terracino 18/01/2018 -2,5 1,2 4,4 54 0,5 1.019
RI BORGOVELINO Ponte Basso 18/01/2018 -4,8 3,1 10,8 80 0,4 1.018
RI CANTALUPO S. Francesco 18/01/2018 -3,4 5,7 11,5 74 0 ----
RI CASTEL DI TORA Monte di Tora 18/01/2018 -4,1 3,8 11,7 81 0 1.014
RI CASTELNUOVO FARFA C. Spadone 18/01/2018 -1,2 7,1 12,7 70 0 ----
RI CONFIGNI Portella 18/01/2018 -0,8 6,4 10,7 61 0 1.017
RI FARA SABINA Canneto 18/01/2018 0,4 8 14,1 57 0 1.026
RI FARA SABINA Sant'Andrea 18/01/2018 -1,5 7,2 13,3 64 0 ----
RI MONTELEONE S. Prato Camino 18/01/2018 -2,2 5,9 12,8 63 0,2 1.014
RI MONTOPOLI IN SABINA Colle Arcone 18/01/2018 -1,8 7,1 12,3 73 0 ----
RI MONTOPOLI IN SABINA Villa Caprola 18/01/2018 -2,1 7,1 15,1 82 0 ----
RI POGGIO CATINO Pastine 18/01/2018 0,8 7,2 12 60 0 ----
RI POGGIO NATIVO Casali 18/01/2018 0,5 6,6 10,8 66 0 ----
RI RIETI Piana di Rieti 18/01/2018 -6 2,8 10,3 74 0,2 1.021
RI SCANDRIGLIA Ponticelli 18/01/2018 0,5 6,7 10,9 66 0,2 ----
RM AGOSTA La Cisterna 18/01/2018 -3 3,6 11,5 81 0,2 1.014
RM BRACCIANO Prato Pianciano 18/01/2018 -0,8 6,3 12,2 58 0 N.D.
RM CANALE MONTERANO Monte Virginio 18/01/2018 -2,9 5,1 13,2 74 0 1.017
RM CERVETERI Campo di Mare 18/01/2018 1 8,4 14,3 58 0 ----
RM CIVITELLA S.PAOLO Le Cese 18/01/2018 -0,5 6,8 13,6 61 0 1.015
RM FIUMICINO Maccarese 18/01/2018 -2,6 8,1 14,5 74 0 1.018
RM FIUMICINO Testa di Lepre 18/01/2018 -0,2 7,9 13,8 67 0 ----
RM FRASCATI Prata Porci 18/01/2018 -0,5 8,4 14 67 0,2 1.018
RM GENAZZANO Coop. La Sonnina 18/01/2018 -0,5 6 12,4 67 1,6 1.021
RM GROTTAFERRATA Valle Marciana 18/01/2018 -0,4 7,9 13,2 64 0,2 1.020
RM LICENZA Colle Franco 18/01/2018 -2,7 4,8 12,3 65 0,8 1.014
RM MARCELLINA V. Campetella 18/01/2018 -0,6 7,8 13,8 67 0 ----
RM MARINO Gotto d'Oro 18/01/2018 0,7 8,9 15,3 64 0,4 1.019
RM MONTECOMPATRI Colle Mattia 18/01/2018 -0,7 7,7 13,5 65 0 1.020
RM MONTECOMPATRI Pantano Borghese 18/01/2018 -4,9 6,4 15,5 79 0,2 1.009
RM MONTELIBRETTI Bruciati 18/01/2018 -2,8 7,1 14,4 70 0,2 ----
RM MONTEPORZIO Camaldoli 18/01/2018 -1,1 5,9 9,7 68 0,4 1.021
RM MONTEROTONDO Grotta Marozza 18/01/2018 -2,9 6,2 13,7 76 0 1.022
RM PALOMBARA Fonte Grande 18/01/2018 -4,2 6,2 13,3 71 0 ----
RM ROMA Capocotta 18/01/2018 1 8,4 12,3 66 0 ----
RM ROMA Ponte di Nona 18/01/2018 -2 5,2 13 88 0 N.D.
RM ROMA Via Lanciani 38 18/01/2018 0,8 8,8 13,9 69 0 1.019
RM S. GREGORIO C. Faustiniano 18/01/2018 0,5 7,2 14,1 61 0 1.013
RM VELLETRI Cantina Sperimentale 18/01/2018 3,4 8,7 13,7 58 3 1.013
RM VELLETRI Prato Lungo 18/01/2018 N.D. N.D. N.D. N.D. N.D. ----
RM ZAGAROLO Santa Apollara 18/01/2018 -0,1 6,1 11,6 64 0,2 ----
VT ACQUAPENDENTE Falconiera 18/01/2018 -3,5 4,1 10,9 69 0 1.018
VT BAGNOREGIO Castell Cellesi 18/01/2018 -0,3 5,3 10,9 55 0 ----
VT BASSANO R. Piano Mola 18/01/2018 -0,1 6,2 11,4 64 0 1.014
VT BLERA Puntoni 18/01/2018 -2 5,9 11,8 68 0 1.017
VT BOLSENA Capone 18/01/2018 -1,7 6,2 13,2 65 0 1.015
VT BOLSENA Rentica 18/01/2018 -1,6 5,6 11,4 64 0 ----
VT CANINO Diga Timone 18/01/2018 -2,5 4,2 14,1 80 0 1.015
VT CANINO Pianacce 18/01/2018 -4,2 5,9 12,9 70 0 1.018
VT CANINO San Valeriano 18/01/2018 2,7 7,6 13 69 0 ----
VT CELLENO Acquaforte 18/01/2018 -3 4,2 10,8 71 0 ----
VT CORCHIANO Pantalone 18/01/2018 -4,3 5 13 72 0 1.017
VT FARNESE Gressa 18/01/2018 -1,5 5,4 11,2 65 0 ----
VT FARNESE Pian di Sala 18/01/2018 -5,6 2,6 10,9 80 0 ----
VT GROTTE DI CASTRO Borghetto 18/01/2018 -3 3,9 11,6 78 0 1.025
VT GROTTE DI CASTRO Purgatorio 18/01/2018 -2,2 4,3 11,3 71 0 1.023
VT LATERA Centro Florovivaistico 18/01/2018 -5,1 3,9 12,6 77 0,2 1.011
VT MONTALTO Le Murelle 18/01/2018 -1,2 6,4 13,9 69 0 1.020
VT MONTALTO Pescia Romana 18/01/2018 -0,5 7,3 14,9 74 0 1.013
VT MONTEFIASCONE Commenda 18/01/2018 -0,6 6,1 12,5 68 0 ----
VT RONCIGLIONE Ponterotto 18/01/2018 -3,1 5,1 11,8 62 0 ----
VT SORIANO CIMINO Pantane 18/01/2018 -6,4 4,3 13,3 76 0 1.015
VT SORIANO CIMINO Poggio di Chia 18/01/2018 -3,5 5,2 12 65 0 ----
VT TARQUINIA Portaccia 18/01/2018 -0,5 6,9 15 74 0 ----
VT TUSCANIA Montebello 18/01/2018 0,9 7,5 12,3 59 0 ----
VT VETRALLA Marchionato 18/01/2018 0,2 6,9 12,2 71 0 ----
VT VITERBO Pisello 18/01/2018 -1,4 5,6 11,7 68 0 ----
N.D. = Dati Non Disponibili
---- = Sensore non presente

Le misure esposte sono grezze, ovvero non sono state validate